Time;durP1;ratioP1;P1;durP2;ratioP2;P2;SDS_P1;SDS_P2;PMS_P1;PMS_P2;Temp;Humidity;BMP_temperature;BMP_pressure;BME280_temperature;BME280_humidity;BME280_pressure;Samples;Min_cycle;Max_cycle;Signal;HPM_P1;HPM_P2
2022/07/02 00:02:11;;;;;;;0.43;0.43;;;12.60;99.90;;;;;;5012004;28;20192;-77
2022/07/02 00:04:43;;;;;;;0.40;0.40;;;12.50;99.90;;;;;;5012322;28;20265;-79
2022/07/02 00:07:09;;;;;;;0.40;0.40;;;12.50;99.90;;;;;;5012994;28;20176;-78
2022/07/02 00:09:37;;;;;;;0.40;0.40;;;12.50;99.90;;;;;;5012142;28;20180;-77
2022/07/02 00:12:03;;;;;;;0.40;0.40;;;12.40;99.90;;;;;;5011973;28;20279;-78
2022/07/02 00:14:29;;;;;;;0.40;0.40;;;12.40;99.90;;;;;;5011621;28;20173;-77
2022/07/02 00:16:55;;;;;;;0.40;0.40;;;12.40;99.90;;;;;;5011635;28;20214;-78
2022/07/02 00:19:22;;;;;;;0.30;0.30;;;12.30;99.90;;;;;;5011107;28;20177;-77
2022/07/02 00:21:48;;;;;;;0.30;0.30;;;12.20;99.90;;;;;;5011677;28;20250;-78
2022/07/02 00:24:13;;;;;;;0.40;0.40;;;12.20;99.90;;;;;;5011678;28;20200;-78
2022/07/02 00:26:45;;;;;;;0.50;0.50;;;12.20;99.90;;;;;;5011576;28;20621;-78
2022/07/02 00:29:33;;;;;;;0.50;0.50;;;12.20;99.90;;;;;;5011340;28;20181;-78
2022/07/02 00:31:59;;;;;;;0.60;0.60;;;12.20;99.90;;;;;;5015625;28;20214;-79
2022/07/02 00:34:25;;;;;;;0.50;0.50;;;12.20;99.90;;;;;;5015526;28;20708;-77
2022/07/02 00:36:51;;;;;;;0.40;0.40;;;12.20;99.90;;;;;;5015465;28;20239;-78
2022/07/02 00:39:17;;;;;;;0.50;0.50;;;12.30;99.90;;;;;;5014899;28;20212;-78
2022/07/02 00:41:44;;;;;;;0.40;0.40;;;12.30;99.90;;;;;;5015307;28;20200;-78
2022/07/02 00:44:10;;;;;;;0.40;0.40;;;12.40;99.90;;;;;;5015248;28;20176;-78
2022/07/02 00:46:37;;;;;;;0.40;0.40;;;12.40;99.90;;;;;;5015400;28;20638;-78
2022/07/02 00:49:03;;;;;;;0.40;0.40;;;12.40;99.90;;;;;;5014981;28;20253;-78
2022/07/02 00:51:29;;;;;;;0.37;0.37;;;12.40;99.90;;;;;;5015091;28;20756;-78
2022/07/02 00:53:54;;;;;;;0.30;0.30;;;12.40;99.90;;;;;;5015253;28;20185;-78
2022/07/02 00:56:20;;;;;;;0.43;0.43;;;12.30;99.90;;;;;;5015093;28;20625;-77
2022/07/02 00:58:47;;;;;;;0.30;0.30;;;12.30;99.90;;;;;;5014967;28;20180;-78
2022/07/02 01:01:12;;;;;;;0.30;0.30;;;12.30;99.90;;;;;;5015025;28;20192;-78
2022/07/02 01:03:42;;;;;;;0.30;0.30;;;12.30;99.90;;;;;;5015149;28;20279;-78
2022/07/02 01:06:07;;;;;;;0.50;0.50;;;12.30;99.90;;;;;;5015242;28;20187;-80
2022/07/02 01:11:19;;;;;;;0.40;0.40;;;12.30;99.90;;;;;;5014691;28;20186;-79
2022/07/02 01:13:44;;;;;;;0.40;0.40;;;12.30;99.90;;;;;;5015365;28;20169;-78
2022/07/02 01:16:10;;;;;;;0.50;0.50;;;12.30;99.90;;;;;;5015037;28;20521;-78
2022/07/02 01:18:36;;;;;;;0.40;0.40;;;12.30;99.90;;;;;;5014618;28;20263;-78
2022/07/02 01:21:03;;;;;;;0.50;0.50;;;12.30;99.90;;;;;;5014084;28;20238;-78
2022/07/02 01:23:29;;;;;;;0.40;0.40;;;12.30;99.90;;;;;;5014390;28;20227;-78
2022/07/02 01:25:54;;;;;;;0.43;0.43;;;12.30;99.90;;;;;;5014222;28;20192;-78
2022/07/02 01:28:20;;;;;;;0.50;0.50;;;12.30;99.90;;;;;;5014539;28;20173;-78
2022/07/02 01:30:50;;;;;;;0.50;0.50;;;12.30;99.90;;;;;;5013804;28;20180;-77
2022/07/02 01:33:16;;;;;;;0.40;0.40;;;12.30;99.90;;;;;;5014449;28;20205;-78
2022/07/02 01:35:42;;;;;;;0.50;0.50;;;12.30;99.90;;;;;;5014051;28;20264;-77
2022/07/02 01:38:07;;;;;;;0.40;0.40;;;12.20;99.90;;;;;;5014138;28;20212;-79
2022/07/02 01:40:33;;;;;;;0.40;0.40;;;12.20;99.90;;;;;;5013721;28;20207;-78
2022/07/02 01:42:58;;;;;;;0.43;0.43;;;12.20;99.90;;;;;;5013828;28;20250;-79
2022/07/02 01:45:24;;;;;;;0.40;0.40;;;12.10;99.90;;;;;;5014263;28;20180;-77
2022/07/02 01:47:49;;;;;;;0.40;0.40;;;12.20;99.90;;;;;;5014089;28;20176;-77
2022/07/02 01:50:15;;;;;;;0.40;0.40;;;12.10;99.90;;;;;;5013468;28;20164;-78
2022/07/02 01:52:41;;;;;;;0.40;0.40;;;12.10;99.90;;;;;;5013920;28;20201;-77
2022/07/02 01:55:07;;;;;;;0.50;0.50;;;12.00;99.90;;;;;;5013759;28;20264;-76
2022/07/02 01:57:35;;;;;;;0.40;0.40;;;12.00;99.90;;;;;;5013949;28;20219;-77
2022/07/02 02:00:04;;;;;;;0.40;0.40;;;11.90;99.90;;;;;;5013451;28;20567;-79
2022/07/02 02:02:29;;;;;;;0.37;0.37;;;11.90;99.90;;;;;;5013558;28;20196;-78
2022/07/02 02:04:55;;;;;;;0.40;0.40;;;11.80;99.90;;;;;;5013608;28;20168;-78
2022/07/02 02:07:20;;;;;;;0.40;0.40;;;11.70;99.90;;;;;;5013731;28;20181;-77
2022/07/02 02:09:46;;;;;;;0.50;0.50;;;11.70;99.90;;;;;;5012965;28;20173;-77
2022/07/02 02:12:12;;;;;;;0.50;0.50;;;11.70;99.90;;;;;;5013633;28;20211;-77
2022/07/02 02:14:37;;;;;;;0.50;0.50;;;11.70;99.90;;;;;;5013668;28;20180;-77
2022/07/02 02:17:03;;;;;;;0.40;0.40;;;11.70;99.90;;;;;;5013270;28;20204;-77
2022/07/02 02:19:29;;;;;;;0.50;0.50;;;11.60;99.90;;;;;;5012817;28;20204;-78
2022/07/02 02:21:55;;;;;;;0.40;0.40;;;11.60;99.90;;;;;;5013310;28;20583;-78
2022/07/02 02:24:21;;;;;;;0.40;0.40;;;11.60;99.90;;;;;;5013302;28;20534;-78
2022/07/02 02:26:47;;;;;;;0.40;0.40;;;11.50;99.90;;;;;;5013488;28;20180;-78
2022/07/02 02:29:12;;;;;;;0.40;0.40;;;11.50;99.90;;;;;;5012912;28;20172;-78
2022/07/02 02:31:38;;;;;;;0.50;0.50;;;11.50;99.90;;;;;;5012984;28;20710;-77
2022/07/02 02:34:04;;;;;;;0.60;0.60;;;11.50;99.90;;;;;;5013119;28;20407;-77
2022/07/02 02:36:29;;;;;;;0.40;0.40;;;11.40;99.90;;;;;;5012828;28;20187;-77
2022/07/02 02:38:55;;;;;;;0.60;0.60;;;11.50;99.90;;;;;;5012439;28;20638;-78
2022/07/02 02:41:20;;;;;;;0.40;0.40;;;11.40;99.90;;;;;;5013992;28;20634;-78
2022/07/02 02:43:46;;;;;;;0.40;0.40;;;11.40;99.90;;;;;;5013140;28;20180;-79
2022/07/02 02:46:11;;;;;;;0.50;0.50;;;11.40;99.90;;;;;;5013123;28;20168;-77
2022/07/02 02:48:38;;;;;;;0.50;0.50;;;11.40;99.90;;;;;;5012895;28;20172;-78
2022/07/02 02:51:04;;;;;;;0.50;0.50;;;11.40;99.90;;;;;;5012364;28;20196;-77
2022/07/02 02:53:31;;;;;;;0.50;0.50;;;11.40;99.90;;;;;;5011788;28;20342;-77
2022/07/02 02:55:58;;;;;;;0.40;0.40;;;11.40;99.90;;;;;;5012977;28;20185;-77
2022/07/02 02:58:24;;;;;;;0.40;0.40;;;11.40;99.90;;;;;;5012959;28;20677;-78
2022/07/02 03:00:50;;;;;;;0.50;0.50;;;11.40;99.90;;;;;;5012475;28;20226;-78
2022/07/02 03:03:16;;;;;;;0.50;0.50;;;11.30;99.90;;;;;;5013072;28;20200;-79
2022/07/02 03:05:41;;;;;;;0.50;0.50;;;11.30;99.90;;;;;;5012551;28;20638;-77
2022/07/02 03:08:06;;;;;;;0.40;0.40;;;11.20;99.90;;;;;;5012478;28;20184;-77
2022/07/02 03:10:32;;;;;;;0.47;0.47;;;11.20;99.90;;;;;;5012143;28;20196;-79
2022/07/02 03:12:57;;;;;;;0.50;0.50;;;11.20;99.90;;;;;;5012591;28;20216;-78
2022/07/02 03:15:24;;;;;;;0.50;0.50;;;11.20;99.90;;;;;;5012348;28;20274;-78
2022/07/02 03:17:50;;;;;;;0.40;0.40;;;11.20;99.90;;;;;;5012420;28;20300;-78
2022/07/02 03:20:15;;;;;;;0.40;0.40;;;11.20;99.90;;;;;;5011923;28;20252;-79
2022/07/02 03:22:41;;;;;;;0.40;0.40;;;11.20;99.90;;;;;;5012109;28;20196;-78
2022/07/02 03:25:07;;;;;;;0.50;0.50;;;11.10;99.90;;;;;;5012430;28;20270;-78
2022/07/02 03:27:33;;;;;;;0.50;0.50;;;11.10;99.90;;;;;;5012836;28;20323;-77
2022/07/02 03:29:59;;;;;;;0.50;0.50;;;11.10;99.90;;;;;;5011866;28;20694;-78
2022/07/02 03:32:29;;;;;;;0.40;0.40;;;11.10;99.90;;;;;;5012072;28;20196;-78
2022/07/02 03:34:55;;;;;;;0.40;0.40;;;11.10;99.90;;;;;;5012254;28;20523;-79
2022/07/02 03:37:25;;;;;;;0.50;0.50;;;11.10;99.90;;;;;;5012210;28;20215;-78
2022/07/02 03:39:51;;;;;;;0.53;0.53;;;11.10;99.90;;;;;;5011862;28;20173;-77
2022/07/02 03:42:16;;;;;;;0.50;0.50;;;11.10;99.90;;;;;;5012113;28;20258;-78
2022/07/02 03:44:42;;;;;;;0.40;0.40;;;11.00;99.90;;;;;;5012184;28;20177;-78
2022/07/02 03:47:08;;;;;;;0.50;0.50;;;11.00;99.90;;;;;;5012115;28;20200;-79
2022/07/02 03:49:33;;;;;;;0.40;0.40;;;11.10;99.90;;;;;;5011336;28;20200;-78
2022/07/02 03:51:59;;;;;;;0.50;0.50;;;11.10;99.90;;;;;;5012234;28;20710;-78
2022/07/02 03:54:24;;;;;;;0.40;0.40;;;11.10;99.90;;;;;;5012446;28;20262;-80
2022/07/02 03:56:50;;;;;;;0.47;0.47;;;11.10;99.90;;;;;;5011972;28;20227;-77
2022/07/02 03:59:15;;;;;;;0.40;0.40;;;11.10;99.90;;;;;;5011356;28;20180;-78
2022/07/02 04:01:41;;;;;;;0.40;0.40;;;11.10;99.90;;;;;;5011623;28;20230;-77
2022/07/02 04:04:06;;;;;;;0.50;0.50;;;11.10;99.90;;;;;;5011680;28;20214;-77
2022/07/02 04:06:32;;;;;;;0.50;0.50;;;11.10;99.90;;;;;;5015070;28;20793;-79
2022/07/02 04:08:57;;;;;;;0.50;0.50;;;11.10;99.90;;;;;;5017796;28;20195;-78
2022/07/02 04:11:23;;;;;;;0.40;0.40;;;11.20;99.90;;;;;;5015761;28;20595;-77
2022/07/02 04:13:48;;;;;;;0.50;0.50;;;11.20;99.90;;;;;;5015672;28;20947;-78
2022/07/02 04:16:14;;;;;;;0.40;0.40;;;11.30;99.90;;;;;;5015680;28;20191;-78
2022/07/02 04:18:39;;;;;;;0.40;0.40;;;11.40;99.90;;;;;;5015509;28;20236;-77
2022/07/02 04:21:05;;;;;;;0.50;0.50;;;11.50;99.90;;;;;;5015253;28;20203;-77
2022/07/02 04:23:30;;;;;;;0.40;0.40;;;11.60;99.90;;;;;;5015758;28;20200;-77
2022/07/02 04:25:56;;;;;;;0.50;0.50;;;11.70;99.90;;;;;;5015698;28;20223;-77
2022/07/02 04:28:23;;;;;;;0.50;0.50;;;11.80;99.90;;;;;;5016006;28;20315;-77
2022/07/02 04:30:49;;;;;;;0.43;0.43;;;11.90;99.90;;;;;;5015514;28;20240;-78
2022/07/02 04:33:14;;;;;;;0.50;0.50;;;12.00;99.90;;;;;;5015626;28;20658;-77
2022/07/02 04:35:40;;;;;;;0.40;0.40;;;12.10;99.90;;;;;;5015570;28;20600;-77
2022/07/02 04:38:05;;;;;;;0.40;0.40;;;12.30;99.90;;;;;;5015660;28;20235;-77
2022/07/02 04:40:31;;;;;;;0.40;0.40;;;12.30;99.90;;;;;;5015092;28;20641;-77
2022/07/02 04:42:56;;;;;;;0.40;0.40;;;12.30;99.90;;;;;;5015304;28;20196;-77
2022/07/02 04:45:22;;;;;;;0.40;0.40;;;12.40;99.90;;;;;;5015513;28;20306;-77
2022/07/02 04:47:47;;;;;;;0.40;0.40;;;12.60;99.90;;;;;;5014992;28;20188;-77
2022/07/02 04:50:13;;;;;;;0.33;0.33;;;12.80;99.90;;;;;;5014494;28;20180;-77
2022/07/02 04:52:38;;;;;;;0.40;0.40;;;13.10;99.90;;;;;;5015066;28;20254;-77
2022/07/02 04:55:04;;;;;;;0.30;0.30;;;13.30;99.90;;;;;;5015017;28;20250;-76
2022/07/02 04:57:30;;;;;;;0.40;0.40;;;13.50;99.90;;;;;;5014640;28;20306;-77
2022/07/02 04:59:55;;;;;;;0.40;0.40;;;13.70;99.90;;;;;;5014183;28;20172;-77
2022/07/02 05:02:21;;;;;;;0.30;0.30;;;13.80;99.90;;;;;;5014433;28;20232;-77
2022/07/02 05:04:46;;;;;;;0.30;0.30;;;14.00;99.90;;;;;;5014196;28;20172;-77
2022/07/02 05:07:12;;;;;;;0.40;0.40;;;14.20;99.90;;;;;;5014733;28;20180;-77
2022/07/02 05:09:37;;;;;;;0.40;0.40;;;14.30;99.90;;;;;;5013590;28;20184;-77
2022/07/02 05:12:03;;;;;;;0.40;0.40;;;14.40;99.90;;;;;;5013906;28;20234;-77
2022/07/02 05:14:29;;;;;;;0.30;0.30;;;14.60;99.90;;;;;;5014399;28;20208;-78
2022/07/02 05:16:55;;;;;;;0.30;0.30;;;14.70;99.90;;;;;;5013358;28;20227;-79
2022/07/02 05:19:20;;;;;;;0.40;0.40;;;14.80;99.90;;;;;;5013211;28;20583;-78
2022/07/02 05:21:46;;;;;;;0.40;0.40;;;15.00;99.90;;;;;;5014241;28;20280;-77
2022/07/02 05:24:11;;;;;;;0.40;0.40;;;15.00;99.90;;;;;;5014151;28;20185;-77
2022/07/02 05:26:37;;;;;;;0.30;0.30;;;14.90;99.90;;;;;;5013775;28;20196;-77
2022/07/02 05:29:03;;;;;;;0.40;0.40;;;14.80;99.90;;;;;;5013019;28;20168;-77
2022/07/02 05:31:28;;;;;;;0.40;0.40;;;14.80;99.90;;;;;;5013488;28;20184;-78
2022/07/02 05:33:54;;;;;;;0.40;0.40;;;14.60;99.90;;;;;;5013945;28;20184;-79
2022/07/02 05:36:19;;;;;;;0.40;0.40;;;14.60;99.90;;;;;;5014416;28;20188;-77
2022/07/02 05:38:45;;;;;;;0.33;0.33;;;14.80;99.90;;;;;;5014305;28;20215;-78
2022/07/02 05:41:10;;;;;;;0.37;0.37;;;14.90;99.90;;;;;;5014326;28;20534;-78
2022/07/02 05:43:36;;;;;;;0.40;0.40;;;15.00;99.90;;;;;;5014280;28;20200;-77
2022/07/02 05:46:01;;;;;;;0.50;0.50;;;15.00;99.90;;;;;;5015438;28;20181;-80
2022/07/02 05:48:27;;;;;;;0.40;0.40;;;15.00;99.90;;;;;;5015241;28;20211;-78
2022/07/02 05:50:52;;;;;;;0.30;0.30;;;15.10;99.90;;;;;;5014042;28;20530;-78
2022/07/02 05:53:18;;;;;;;0.40;0.40;;;15.00;99.90;;;;;;5016417;28;20197;-79
2022/07/02 05:55:43;;;;;;;0.30;0.30;;;15.10;99.90;;;;;;5015209;28;20180;-79
2022/07/02 05:58:10;;;;;;;0.40;0.40;;;15.00;99.90;;;;;;5016420;28;20247;-77
2022/07/02 06:00:35;;;;;;;0.40;0.40;;;14.80;99.90;;;;;;5015135;28;20623;-76
2022/07/02 06:03:01;;;;;;;0.40;0.40;;;14.70;99.90;;;;;;5014451;28;20235;-78
2022/07/02 06:08:10;;;;;;;0.30;0.30;;;14.70;99.90;;;;;;5014936;28;20174;-78
2022/07/02 06:10:36;;;;;;;0.40;0.40;;;14.80;99.90;;;;;;5013785;28;20665;-78
2022/07/02 06:13:02;;;;;;;0.30;0.30;;;14.80;99.90;;;;;;5016905;28;20687;-77
2022/07/02 06:15:28;;;;;;;0.40;0.40;;;14.90;99.90;;;;;;5022172;28;20180;-78
2022/07/02 06:17:53;;;;;;;0.40;0.40;;;15.10;99.90;;;;;;5023594;28;20684;-77
2022/07/02 06:20:19;;;;;;;0.40;0.40;;;15.30;99.90;;;;;;5024067;28;20172;-77
2022/07/02 06:22:44;;;;;;;0.40;0.40;;;15.40;99.90;;;;;;5022442;28;20208;-77
2022/07/02 06:25:10;;;;;;;0.40;0.40;;;15.40;99.90;;;;;;5023905;28;20645;-74
2022/07/02 06:27:36;;;;;;;0.40;0.40;;;15.50;99.90;;;;;;5012763;28;20196;-74
2022/07/02 06:30:03;;;;;;;0.40;0.40;;;15.50;99.90;;;;;;5012959;28;20184;-74
2022/07/02 06:32:29;;;;;;;0.37;0.37;;;15.80;99.90;;;;;;5012827;28;20188;-75
2022/07/02 06:34:55;;;;;;;0.40;0.40;;;15.90;99.90;;;;;;5012763;28;20176;-75
2022/07/02 06:37:21;;;;;;;0.30;0.30;;;16.00;99.90;;;;;;5012512;28;20275;-75
2022/07/02 06:39:47;;;;;;;0.37;0.37;;;16.10;99.90;;;;;;5010845;28;20275;-76
2022/07/02 06:42:29;;;;;;;0.30;0.30;;;16.30;99.90;;;;;;5013663;28;20200;-73
2022/07/02 06:44:56;;;;;;;0.40;0.40;;;16.20;99.90;;;;;;5011967;28;20188;-74
2022/07/02 06:47:22;;;;;;;0.43;0.43;;;16.30;99.90;;;;;;5011477;28;20600;-73
2022/07/02 06:49:49;;;;;;;0.30;0.30;;;16.40;99.90;;;;;;5010960;28;20211;-74
2022/07/02 06:52:15;;;;;;;0.40;0.40;;;16.40;98.70;;;;;;5012712;28;20207;-75
2022/07/02 06:54:42;;;;;;;0.40;0.40;;;16.50;99.90;;;;;;5012708;28;20184;-75
2022/07/02 06:57:08;;;;;;;0.30;0.30;;;16.60;91.50;;;;;;5012321;28;20204;-76
2022/07/02 06:59:34;;;;;;;0.30;0.30;;;16.80;52.70;;;;;;5011974;28;20696;-74
2022/07/02 07:02:00;;;;;;;0.40;0.40;;;16.80;1.00;;;;;;5012621;28;20243;-76
2022/07/02 07:04:28;;;;;;;0.30;0.30;;;16.80;15.70;;;;;;5011638;28;20211;-76
2022/07/02 07:06:55;;;;;;;0.30;0.30;;;16.90;40.60;;;;;;5012254;28;20556;-77
2022/07/02 07:09:22;;;;;;;0.30;0.30;;;17.00;16.60;;;;;;5012137;28;20259;-75
2022/07/02 07:11:47;;;;;;;0.40;0.40;;;17.10;1.00;;;;;;5012248;28;20192;-76
2022/07/02 07:14:13;;;;;;;0.40;0.40;;;17.20;1.00;;;;;;5012415;28;20187;-75
2022/07/02 07:16:39;;;;;;;0.40;0.40;;;17.40;1.00;;;;;;5012341;28;20176;-75
2022/07/02 07:19:04;;;;;;;0.30;0.30;;;17.60;1.00;;;;;;5011840;28;20179;-76
2022/07/02 07:21:31;;;;;;;0.40;0.40;;;17.80;1.00;;;;;;5012549;28;20176;-76
2022/07/02 07:23:56;;;;;;;0.40;0.40;;;17.90;1.00;;;;;;5012279;28;20168;-75
2022/07/02 07:26:22;;;;;;;0.40;0.40;;;18.00;1.00;;;;;;5008461;28;20199;-75
2022/07/02 07:28:47;;;;;;;0.40;0.40;;;18.10;1.00;;;;;;5009623;28;20180;-74
2022/07/02 07:31:13;;;;;;;0.47;0.47;;;18.30;1.00;;;;;;5009008;28;20188;-77
2022/07/02 07:33:39;;;;;;;0.40;0.40;;;18.40;41.20;;;;;;5009495;28;20634;-75
2022/07/02 07:36:05;;;;;;;0.40;0.40;;;18.40;99.90;;;;;;5009335;28;20263;-75
2022/07/02 07:38:30;;;;;;;0.33;0.33;;;18.60;99.90;;;;;;5009625;28;20299;-76
2022/07/02 07:40:56;;;;;;;0.30;0.30;;;18.80;99.90;;;;;;5008348;28;20207;-76
2022/07/02 07:43:21;;;;;;;0.30;0.30;;;19.00;1.00;;;;;;5009481;28;20204;-77
2022/07/02 07:45:47;;;;;;;0.30;0.30;;;19.20;1.00;;;;;;5009884;28;20207;-75
2022/07/02 07:48:13;;;;;;;0.40;0.40;;;19.50;1.00;;;;;;5009212;28;20630;-75
2022/07/02 07:50:39;;;;;;;0.30;0.30;;;19.80;1.00;;;;;;5009192;28;20187;-75
2022/07/02 07:53:05;;;;;;;0.30;0.30;;;20.30;1.00;;;;;;5009140;28;20570;-76
2022/07/02 07:55:30;;;;;;;0.30;0.30;;;20.60;1.00;;;;;;5009510;28;20849;-75
2022/07/02 07:57:56;;;;;;;0.30;0.30;;;20.70;99.90;;;;;;5009481;28;20212;-77
2022/07/02 08:00:22;;;;;;;0.33;0.33;;;20.70;51.90;;;;;;5008040;28;20235;-75
2022/07/02 08:02:48;;;;;;;0.37;0.37;;;21.00;1.00;;;;;;5009517;28;20283;-76
2022/07/02 08:05:13;;;;;;;0.30;0.30;;;21.40;99.90;;;;;;5009342;28;20195;-77
2022/07/02 08:07:40;;;;;;;0.40;0.40;;;21.60;99.90;;;;;;5009659;28;20219;-76
2022/07/02 08:10:07;;;;;;;0.30;0.30;;;21.90;1.00;;;;;;5008577;28;20231;-76
2022/07/02 08:12:32;;;;;;;0.40;0.40;;;22.20;15.70;;;;;;5008159;28;20577;-75
2022/07/02 08:14:59;;;;;;;0.30;0.30;;;22.40;1.00;;;;;;5009205;28;20176;-76
2022/07/02 08:17:29;;;;;;;0.30;0.30;;;22.50;1.00;;;;;;5009448;28;20223;-75
2022/07/02 08:19:55;;;;;;;0.40;0.40;;;23.00;1.00;;;;;;5008749;28;20216;-75
2022/07/02 08:22:21;;;;;;;0.40;0.40;;;23.30;1.00;;;;;;5009099;28;20200;-74
2022/07/02 08:24:47;;;;;;;0.30;0.30;;;23.50;1.00;;;;;;5009190;28;20857;-75
2022/07/02 08:27:12;;;;;;;0.40;0.40;;;23.80;1.00;;;;;;5009219;28;20181;-77
2022/07/02 08:29:38;;;;;;;0.30;0.30;;;23.70;1.00;;;;;;5009637;28;20654;-76
2022/07/02 08:32:05;;;;;;;0.40;0.40;;;23.50;1.00;;;;;;5011108;28;20269;-76
2022/07/02 08:34:31;;;;;;;0.33;0.33;;;23.60;1.00;;;;;;5017648;28;20610;-75
2022/07/02 08:36:57;;;;;;;0.37;0.37;;;23.60;1.00;;;;;;5011272;28;20645;-76
2022/07/02 08:39:22;;;;;;;0.37;0.37;;;23.60;1.00;;;;;;5010459;28;20200;-76
2022/07/02 08:41:49;;;;;;;0.30;0.30;;;23.90;1.00;;;;;;5010732;28;20206;-76
2022/07/02 08:44:19;;;;;;;0.30;0.30;;;24.10;1.00;;;;;;5011079;28;20557;-75
2022/07/02 08:46:46;;;;;;;0.50;0.50;;;24.20;1.00;;;;;;5011267;28;20176;-76
2022/07/02 08:49:17;;;;;;;0.40;0.40;;;24.30;1.00;;;;;;5011216;28;20176;-76
2022/07/02 08:51:47;;;;;;;0.30;0.30;;;24.20;1.00;;;;;;5012785;28;20666;-76
2022/07/02 08:54:14;;;;;;;0.30;0.30;;;24.50;1.00;;;;;;5014927;28;20184;-77
2022/07/02 08:56:39;;;;;;;0.50;0.50;;;24.30;1.00;;;;;;5014447;28;20180;-77
2022/07/02 08:59:06;;;;;;;0.30;0.30;;;24.30;1.00;;;;;;5013632;28;20187;-77
2022/07/02 09:01:32;;;;;;;0.40;0.40;;;24.20;1.00;;;;;;5014797;28;20179;-77
2022/07/02 09:03:59;;;;;;;0.40;0.40;;;24.40;1.00;;;;;;5015029;28;20297;-76
2022/07/02 09:06:30;;;;;;;0.30;0.30;;;24.20;1.00;;;;;;5015154;28;20200;-77
2022/07/02 09:08:56;;;;;;;0.40;0.40;;;24.20;1.00;;;;;;5013823;28;20267;-77
2022/07/02 09:11:23;;;;;;;0.40;0.40;;;24.30;1.00;;;;;;5014712;28;20295;-79
2022/07/02 09:13:49;;;;;;;0.30;0.30;;;24.40;1.00;;;;;;5015763;28;20549;-77
2022/07/02 09:16:15;;;;;;;0.40;0.40;;;24.60;1.00;;;;;;5015789;28;20181;-77
2022/07/02 09:18:41;;;;;;;0.30;0.30;;;24.90;1.00;;;;;;5015329;28;20220;-77
2022/07/02 09:21:07;;;;;;;0.40;0.40;;;24.80;1.00;;;;;;5014927;28;20540;-77
2022/07/02 09:23:32;;;;;;;0.40;0.40;;;24.80;1.00;;;;;;5015447;28;20661;-77
2022/07/02 09:25:58;;;;;;;0.40;0.40;;;25.00;1.00;;;;;;5015794;28;20725;-78
2022/07/02 09:28:24;;;;;;;0.40;0.40;;;25.00;1.00;;;;;;5015603;28;20183;-77
2022/07/02 09:30:49;;;;;;;0.30;0.30;;;24.70;1.00;;;;;;5015226;28;20181;-76
2022/07/02 09:33:33;;;;;;;0.37;0.37;;;24.90;1.00;;;;;;5014311;28;20291;-77
2022/07/02 09:36:00;;;;;;;0.40;0.40;;;25.10;1.00;;;;;;5014237;28;20280;-79
2022/07/02 09:38:26;;;;;;;0.40;0.40;;;25.00;1.00;;;;;;5012891;28;20302;-78
2022/07/02 09:40:57;;;;;;;0.40;0.40;;;24.80;1.00;;;;;;5016541;28;20578;-78
2022/07/02 09:43:30;;;;;;;0.30;0.30;;;25.20;1.00;;;;;;5015152;28;20211;-77
2022/07/02 09:45:57;;;;;;;0.40;0.40;;;25.20;1.00;;;;;;5014032;28;20256;-76
2022/07/02 09:48:23;;;;;;;0.30;0.30;;;25.40;1.00;;;;;;5014046;28;20211;-77
2022/07/02 09:50:48;;;;;;;0.40;0.40;;;25.50;1.00;;;;;;5016270;28;20176;-77
2022/07/02 09:53:15;;;;;;;0.40;0.40;;;25.20;1.00;;;;;;5015163;28;20215;-77
2022/07/02 09:55:47;;;;;;;0.30;0.30;;;25.20;1.00;;;;;;5015130;28;20172;-77
2022/07/02 09:58:13;;;;;;;0.47;0.47;;;25.10;1.00;;;;;;5015692;28;20235;-81
2022/07/02 10:00:47;;;;;;;0.40;0.40;;;25.10;1.00;;;;;;5017720;28;20187;-79
2022/07/02 10:03:13;;;;;;;0.40;0.40;;;25.20;1.00;;;;;;5013633;28;20229;-78
2022/07/02 10:05:39;;;;;;;0.40;0.40;;;25.30;1.00;;;;;;5016629;28;20181;-77
2022/07/02 10:08:05;;;;;;;0.47;0.47;;;25.60;1.00;;;;;;5019869;28;20212;-77
2022/07/02 10:10:39;;;;;;;0.40;0.40;;;25.60;1.00;;;;;;5020078;28;20231;-77
2022/07/02 10:13:09;;;;;;;0.30;0.30;;;25.50;1.00;;;;;;5010840;28;20192;-77
2022/07/02 10:15:39;;;;;;;0.40;0.40;;;25.70;1.00;;;;;;5012928;28;20263;-78
2022/07/02 10:18:05;;;;;;;0.40;0.40;;;25.80;1.00;;;;;;5016363;28;20662;-78
2022/07/02 10:20:33;;;;;;;0.40;0.40;;;25.90;1.00;;;;;;5016462;28;20180;-78
2022/07/02 10:23:00;;;;;;;0.30;0.30;;;25.80;1.00;;;;;;5023473;28;20199;-77
2022/07/02 10:25:26;;;;;;;0.30;0.30;;;25.80;1.00;;;;;;5039378;28;20188;-80
2022/07/02 10:27:54;;;;;;;0.40;0.40;;;25.80;1.00;;;;;;5031255;28;20172;-80
2022/07/02 10:30:21;;;;;;;0.40;0.40;;;26.10;1.00;;;;;;5029273;28;20234;-80
2022/07/02 10:33:16;;;;;;;0.40;0.40;;;26.10;1.00;;;;;;5029114;28;20201;-80
2022/07/02 10:35:42;;;;;;;0.37;0.37;;;25.90;1.00;;;;;;5033458;28;20243;-81
2022/07/02 10:38:08;;;;;;;0.30;0.30;;;26.20;1.00;;;;;;5032753;28;20212;-83
2022/07/02 10:40:46;;;;;;;0.33;0.33;;;26.20;1.00;;;;;;5031599;28;20176;-81
2022/07/02 10:43:18;;;;;;;0.30;0.30;;;26.30;1.00;;;;;;5039054;28;20203;-80
2022/07/02 10:45:44;;;;;;;0.27;0.27;;;26.10;1.00;;;;;;5037350;28;20180;-81
2022/07/02 10:48:12;;;;;;;0.50;0.50;;;26.00;1.00;;;;;;5038378;28;20177;-83
2022/07/02 10:50:46;;;;;;;0.40;0.40;;;26.20;1.00;;;;;;5037723;28;20184;-80
2022/07/02 10:53:20;;;;;;;0.40;0.40;;;26.10;1.00;;;;;;5036859;28;20273;-80
2022/07/02 10:55:51;;;;;;;0.40;0.40;;;26.30;1.00;;;;;;5043300;28;20171;-80
2022/07/02 10:58:23;;;;;;;0.30;0.30;;;26.70;1.00;;;;;;5044639;28;20219;-79
2022/07/02 11:00:49;;;;;;;0.40;0.40;;;26.90;1.00;;;;;;5044236;28;20274;-78
2022/07/02 11:03:18;;;;;;;0.50;0.50;;;26.80;1.00;;;;;;5047491;28;20243;-83
2022/07/02 11:05:57;;;;;;;0.40;0.40;;;26.60;1.00;;;;;;5045486;28;20175;-82
2022/07/02 11:08:46;;;;;;;0.40;0.40;;;26.70;1.00;;;;;;5037417;28;20182;-80
2022/07/02 11:11:22;;;;;;;0.30;0.30;;;26.90;1.00;;;;;;5037044;28;20169;-80
2022/07/02 11:13:56;;;;;;;0.37;0.37;;;26.50;1.00;;;;;;5036752;28;20208;-82
2022/07/02 11:16:25;;;;;;;0.30;0.30;;;26.30;1.00;;;;;;5036537;28;20188;-83
2022/07/02 11:18:52;;;;;;;0.43;0.43;;;26.00;1.00;;;;;;5036846;28;20208;-84
2022/07/02 11:21:18;;;;;;;0.40;0.40;;;26.10;1.00;;;;;;5036166;28;20188;-82
2022/07/02 11:23:44;;;;;;;0.40;0.40;;;26.10;1.00;;;;;;5037065;28;20232;-79
2022/07/02 11:26:15;;;;;;;0.50;0.50;;;26.10;1.00;;;;;;5037060;28;20191;-81
2022/07/02 11:28:41;;;;;;;0.40;0.40;;;26.10;1.00;;;;;;5037123;28;20195;-80
2022/07/02 11:31:07;;;;;;;0.30;0.30;;;26.20;1.00;;;;;;5036839;28;20211;-80
2022/07/02 11:33:33;;;;;;;0.40;0.40;;;26.00;1.00;;;;;;5034064;28;20276;-81
2022/07/02 11:35:59;;;;;;;0.30;0.30;;;25.90;1.00;;;;;;5033937;28;20177;-80
2022/07/02 11:38:25;;;;;;;0.40;0.40;;;26.10;1.00;;;;;;5037077;28;20231;-82
2022/07/02 11:40:50;;;;;;;0.40;0.40;;;26.40;1.00;;;;;;5036883;28;20165;-81
2022/07/02 11:43:17;;;;;;;0.40;0.40;;;26.60;1.00;;;;;;5036773;28;20189;-80
2022/07/02 11:45:44;;;;;;;0.37;0.37;;;26.80;1.00;;;;;;5035532;28;20178;-84
2022/07/02 11:48:21;;;;;;;0.40;0.40;;;26.80;1.00;;;;;;5037016;28;20185;-82
2022/07/02 11:50:57;;;;;;;0.50;0.50;;;26.90;1.00;;;;;;5032178;28;20191;-80
2022/07/02 11:53:23;;;;;;;0.40;0.40;;;26.80;1.00;;;;;;5032101;28;20178;-82
2022/07/02 11:55:50;;;;;;;0.40;0.40;;;26.80;1.00;;;;;;5036826;28;20168;-82
2022/07/02 11:58:15;;;;;;;0.37;0.37;;;26.70;1.00;;;;;;5036841;28;20220;-81
2022/07/02 12:00:41;;;;;;;0.40;0.40;;;26.80;1.00;;;;;;5036052;28;20180;-79
2022/07/02 12:03:08;;;;;;;0.30;0.30;;;26.60;1.00;;;;;;5036112;28;20199;-82
2022/07/02 12:05:33;;;;;;;0.30;0.30;;;26.80;1.00;;;;;;5035568;28;20203;-79
2022/07/02 12:07:59;;;;;;;0.30;0.30;;;26.90;1.00;;;;;;5031646;28;20212;-80
2022/07/02 12:10:24;;;;;;;0.40;0.40;;;26.60;1.00;;;;;;5016786;28;20534;-80
2022/07/02 12:12:50;;;;;;;0.40;0.40;;;26.50;1.00;;;;;;5014309;28;20571;-78
2022/07/02 12:15:15;;;;;;;0.30;0.30;;;26.60;1.00;;;;;;5017060;28;20176;-81
2022/07/02 12:17:49;;;;;;;0.40;0.40;;;26.70;1.00;;;;;;5017387;28;20588;-79
2022/07/02 12:20:17;;;;;;;0.50;0.50;;;26.80;1.00;;;;;;5015081;28;20242;-79
2022/07/02 12:22:51;;;;;;;0.40;0.40;;;27.00;1.00;;;;;;5020879;28;20196;-81
2022/07/02 12:25:17;;;;;;;0.40;0.40;;;27.00;1.00;;;;;;5015732;28;20207;-82
2022/07/02 12:27:42;;;;;;;0.50;0.50;;;27.10;1.00;;;;;;5036899;28;20195;-82
2022/07/02 12:30:13;;;;;;;0.40;0.40;;;26.90;1.00;;;;;;5036534;28;20198;-80
2022/07/02 12:32:39;;;;;;;0.30;0.30;;;26.80;1.00;;;;;;5030914;28;20211;-81
2022/07/02 12:35:12;;;;;;;0.43;0.43;;;26.80;1.00;;;;;;5018589;28;20180;-79
2022/07/02 12:37:42;;;;;;;0.40;0.40;;;27.10;1.00;;;;;;5018679;28;20715;-82
2022/07/02 12:40:19;;;;;;;0.30;0.30;;;27.30;1.00;;;;;;5017405;28;20642;-80
2022/07/02 12:42:49;;;;;;;0.40;0.40;;;27.30;1.00;;;;;;5016179;28;20204;-78
2022/07/02 12:45:26;;;;;;;0.40;0.40;;;27.40;1.00;;;;;;5015453;28;20177;-79
2022/07/02 12:48:11;;;;;;;0.50;0.50;;;27.50;1.00;;;;;;5016532;28;20703;-83
2022/07/02 12:50:39;;;;;;;0.23;0.23;;;27.80;1.00;;;;;;5015442;28;20176;-80
2022/07/02 12:53:09;;;;;;;0.47;0.47;;;27.80;1.00;;;;;;5017367;28;20202;-81
2022/07/02 12:55:37;;;;;;;0.50;0.50;;;27.70;1.00;;;;;;5020920;28;20195;-80